sensor_id;sensor_type;location;lat;lon;timestamp;pressure;altitude;pressure_sealevel;temperature;humidity
77889;BME280;67082;41.704;44.768;2023-05-09T00:00:01;95567.94;;;14.64;60.40
77889;BME280;67082;41.704;44.768;2023-05-09T00:02:53;95585.13;;;14.77;59.79
77889;BME280;67082;41.704;44.768;2023-05-09T00:05:24;95572.44;;;14.76;59.88
77889;BME280;67082;41.704;44.768;2023-05-09T00:07:54;95577.81;;;14.80;60.27
77889;BME280;67082;41.704;44.768;2023-05-09T00:10:22;95579.56;;;14.63;60.73
77889;BME280;67082;41.704;44.768;2023-05-09T00:12:51;95571.09;;;14.57;60.87
77889;BME280;67082;41.704;44.768;2023-05-09T00:15:37;95586.69;;;14.64;59.54
77889;BME280;67082;41.704;44.768;2023-05-09T00:18:24;95577.34;;;14.67;59.51
77889;BME280;67082;41.704;44.768;2023-05-09T00:21:12;95575.69;;;14.75;60.60
77889;BME280;67082;41.704;44.768;2023-05-09T00:23:41;95582.25;;;14.57;61.06
77889;BME280;67082;41.704;44.768;2023-05-09T00:26:09;95563.88;;;14.51;60.94
77889;BME280;67082;41.704;44.768;2023-05-09T00:28:41;95580.41;;;14.54;60.88
77889;BME280;67082;41.704;44.768;2023-05-09T00:31:10;95585.91;;;14.49;61.24
77889;BME280;67082;41.704;44.768;2023-05-09T00:33:39;95586.97;;;14.51;60.53
77889;BME280;67082;41.704;44.768;2023-05-09T00:36:07;95594.56;;;14.51;60.98
77889;BME280;67082;41.704;44.768;2023-05-09T00:38:36;95588.41;;;14.47;60.91
77889;BME280;67082;41.704;44.768;2023-05-09T00:41:05;95588.88;;;14.45;62.13
77889;BME280;67082;41.704;44.768;2023-05-09T00:43:33;95583.22;;;14.54;60.95
77889;BME280;67082;41.704;44.768;2023-05-09T00:46:02;95577.63;;;14.40;60.81
77889;BME280;67082;41.704;44.768;2023-05-09T00:48:31;95587.72;;;14.52;61.68
77889;BME280;67082;41.704;44.768;2023-05-09T00:51:00;95590.69;;;14.48;61.67
77889;BME280;67082;41.704;44.768;2023-05-09T00:53:30;95583.50;;;14.42;61.72
77889;BME280;67082;41.704;44.768;2023-05-09T00:55:59;95612.13;;;14.42;62.22
77889;BME280;67082;41.704;44.768;2023-05-09T00:58:29;95591.53;;;14.25;62.04
77889;BME280;67082;41.704;44.768;2023-05-09T01:00:57;95591.47;;;14.34;62.88
77889;BME280;67082;41.704;44.768;2023-05-09T01:03:30;95590.88;;;14.30;62.87
77889;BME280;67082;41.704;44.768;2023-05-09T01:06:20;95579.63;;;14.25;62.25
77889;BME280;67082;41.704;44.768;2023-05-09T01:09:01;95599.91;;;14.25;63.27
77889;BME280;67082;41.704;44.768;2023-05-09T01:11:35;95589.81;;;14.28;63.23
77889;BME280;67082;41.704;44.768;2023-05-09T01:14:23;95588.47;;;14.23;63.07
77889;BME280;67082;41.704;44.768;2023-05-09T01:19:50;95585.03;;;14.28;62.60
77889;BME280;67082;41.704;44.768;2023-05-09T01:22:28;95593.13;;;14.17;63.68
77889;BME280;67082;41.704;44.768;2023-05-09T01:30:34;95586.28;;;14.27;63.00
77889;BME280;67082;41.704;44.768;2023-05-09T01:33:06;95595.47;;;14.19;62.77
77889;BME280;67082;41.704;44.768;2023-05-09T01:35:36;95586.97;;;14.13;62.99
77889;BME280;67082;41.704;44.768;2023-05-09T01:38:12;95598.63;;;14.12;63.03
77889;BME280;67082;41.704;44.768;2023-05-09T01:40:44;95602.16;;;14.12;63.01
77889;BME280;67082;41.704;44.768;2023-05-09T01:43:16;95598.38;;;14.24;62.28
77889;BME280;67082;41.704;44.768;2023-05-09T01:45:50;95585.22;;;14.25;61.90
77889;BME280;67082;41.704;44.768;2023-05-09T01:48:22;95591.44;;;14.20;62.61
77889;BME280;67082;41.704;44.768;2023-05-09T01:50:54;95598.56;;;14.21;62.90
77889;BME280;67082;41.704;44.768;2023-05-09T01:53:26;95582.59;;;14.21;62.30
77889;BME280;67082;41.704;44.768;2023-05-09T01:55:57;95600.97;;;14.28;61.81
77889;BME280;67082;41.704;44.768;2023-05-09T02:01:33;95584.16;;;14.37;61.51
77889;BME280;67082;41.704;44.768;2023-05-09T02:04:03;95615.69;;;14.28;62.56
77889;BME280;67082;41.704;44.768;2023-05-09T02:06:34;95608.56;;;14.27;62.74
77889;BME280;67082;41.704;44.768;2023-05-09T02:09:04;95609.50;;;14.24;62.20
77889;BME280;67082;41.704;44.768;2023-05-09T02:11:34;95622.13;;;14.34;62.50
77889;BME280;67082;41.704;44.768;2023-05-09T02:14:02;95607.13;;;14.32;62.33
77889;BME280;67082;41.704;44.768;2023-05-09T02:16:32;95603.28;;;14.29;62.07
77889;BME280;67082;41.704;44.768;2023-05-09T02:19:02;95610.09;;;14.28;62.51
77889;BME280;67082;41.704;44.768;2023-05-09T02:21:31;95618.09;;;14.35;62.76
77889;BME280;67082;41.704;44.768;2023-05-09T02:23:59;95608.22;;;14.49;62.00
77889;BME280;67082;41.704;44.768;2023-05-09T02:26:28;95620.50;;;14.57;61.47
77889;BME280;67082;41.704;44.768;2023-05-09T02:28:59;95623.41;;;14.62;61.06
77889;BME280;67082;41.704;44.768;2023-05-09T02:31:32;95624.00;;;14.66;60.88
77889;BME280;67082;41.704;44.768;2023-05-09T02:34:03;95620.91;;;14.64;60.62
77889;BME280;67082;41.704;44.768;2023-05-09T02:36:36;95629.75;;;14.63;60.85
77889;BME280;67082;41.704;44.768;2023-05-09T02:39:06;95626.22;;;14.77;60.67
77889;BME280;67082;41.704;44.768;2023-05-09T02:41:36;95635.44;;;14.97;59.88
77889;BME280;67082;41.704;44.768;2023-05-09T02:44:04;95623.50;;;14.82;60.60
77889;BME280;67082;41.704;44.768;2023-05-09T02:46:54;95641.50;;;14.81;60.36
77889;BME280;67082;41.704;44.768;2023-05-09T02:49:42;95636.13;;;14.92;59.99
77889;BME280;67082;41.704;44.768;2023-05-09T02:52:13;95643.25;;;14.93;60.42
77889;BME280;67082;41.704;44.768;2023-05-09T02:54:42;95637.25;;;15.00;60.21
77889;BME280;67082;41.704;44.768;2023-05-09T02:57:11;95642.75;;;15.09;60.25
77889;BME280;67082;41.704;44.768;2023-05-09T02:59:40;95637.19;;;15.09;59.79
77889;BME280;67082;41.704;44.768;2023-05-09T03:02:08;95649.97;;;15.16;59.37
77889;BME280;67082;41.704;44.768;2023-05-09T03:04:37;95632.34;;;15.24;59.29
77889;BME280;67082;41.704;44.768;2023-05-09T03:07:08;95647.16;;;15.59;58.24
77889;BME280;67082;41.704;44.768;2023-05-09T03:09:36;95657.13;;;15.66;58.16
77889;BME280;67082;41.704;44.768;2023-05-09T03:12:26;95656.25;;;15.74;57.80
77889;BME280;67082;41.704;44.768;2023-05-09T03:14:56;95656.97;;;15.89;57.68
77889;BME280;67082;41.704;44.768;2023-05-09T03:17:43;95648.31;;;15.87;57.57
77889;BME280;67082;41.704;44.768;2023-05-09T03:20:12;95654.28;;;15.80;57.53
77889;BME280;67082;41.704;44.768;2023-05-09T03:22:42;95651.22;;;15.78;57.73
77889;BME280;67082;41.704;44.768;2023-05-09T03:25:11;95659.50;;;15.87;57.58
77889;BME280;67082;41.704;44.768;2023-05-09T03:27:41;95664.88;;;15.56;58.48
77889;BME280;67082;41.704;44.768;2023-05-09T03:30:13;95658.31;;;15.59;58.41
77889;BME280;67082;41.704;44.768;2023-05-09T03:32:45;95664.69;;;15.45;58.99
77889;BME280;67082;41.704;44.768;2023-05-09T03:35:13;95662.72;;;15.66;58.37
77889;BME280;67082;41.704;44.768;2023-05-09T03:37:43;95662.75;;;15.51;58.00
77889;BME280;67082;41.704;44.768;2023-05-09T03:40:12;95666.91;;;15.56;58.86
77889;BME280;67082;41.704;44.768;2023-05-09T03:42:49;95679.28;;;15.69;58.69
77889;BME280;67082;41.704;44.768;2023-05-09T03:45:36;95663.59;;;15.57;58.85
77889;BME280;67082;41.704;44.768;2023-05-09T03:48:07;95664.75;;;15.65;58.62
77889;BME280;67082;41.704;44.768;2023-05-09T03:50:44;95668.09;;;15.69;58.67
77889;BME280;67082;41.704;44.768;2023-05-09T03:53:14;95671.38;;;15.82;58.11
77889;BME280;67082;41.704;44.768;2023-05-09T03:55:45;95667.72;;;15.76;57.83
77889;BME280;67082;41.704;44.768;2023-05-09T03:58:16;95674.91;;;15.83;58.06
77889;BME280;67082;41.704;44.768;2023-05-09T04:01:05;95674.25;;;15.73;58.22
77889;BME280;67082;41.704;44.768;2023-05-09T04:03:34;95677.75;;;16.03;57.84
77889;BME280;67082;41.704;44.768;2023-05-09T04:06:05;95666.41;;;15.92;58.15
77889;BME280;67082;41.704;44.768;2023-05-09T04:08:39;95670.81;;;15.98;57.79
77889;BME280;67082;41.704;44.768;2023-05-09T04:11:08;95678.13;;;16.10;57.41
77889;BME280;67082;41.704;44.768;2023-05-09T04:13:46;95673.16;;;16.20;57.24
77889;BME280;67082;41.704;44.768;2023-05-09T04:16:29;95673.66;;;16.38;57.07
77889;BME280;67082;41.704;44.768;2023-05-09T04:18:58;95673.31;;;16.31;56.97
77889;BME280;67082;41.704;44.768;2023-05-09T04:21:27;95681.53;;;16.20;57.50
77889;BME280;67082;41.704;44.768;2023-05-09T04:24:02;95673.00;;;16.29;57.45
77889;BME280;67082;41.704;44.768;2023-05-09T04:26:37;95666.16;;;16.30;57.25
77889;BME280;67082;41.704;44.768;2023-05-09T04:29:11;95666.22;;;16.55;56.78
77889;BME280;67082;41.704;44.768;2023-05-09T04:31:40;95673.09;;;16.74;56.44
77889;BME280;67082;41.704;44.768;2023-05-09T04:34:12;95674.44;;;16.84;56.04
77889;BME280;67082;41.704;44.768;2023-05-09T04:36:41;95675.56;;;16.92;56.09
77889;BME280;67082;41.704;44.768;2023-05-09T04:39:11;95681.91;;;17.18;55.75
77889;BME280;67082;41.704;44.768;2023-05-09T04:41:47;95677.34;;;16.95;55.74
77889;BME280;67082;41.704;44.768;2023-05-09T04:44:17;95691.25;;;17.10;55.47
77889;BME280;67082;41.704;44.768;2023-05-09T04:46:45;95679.78;;;17.08;55.39
77889;BME280;67082;41.704;44.768;2023-05-09T04:49:13;95686.66;;;17.07;55.64
77889;BME280;67082;41.704;44.768;2023-05-09T04:51:41;95697.25;;;16.97;55.90
77889;BME280;67082;41.704;44.768;2023-05-09T04:54:10;95689.47;;;16.87;55.98
77889;BME280;67082;41.704;44.768;2023-05-09T04:56:40;95687.28;;;16.96;55.34
77889;BME280;67082;41.704;44.768;2023-05-09T04:59:08;95691.19;;;17.04;54.32
77889;BME280;67082;41.704;44.768;2023-05-09T05:01:36;95695.09;;;17.12;53.03
77889;BME280;67082;41.704;44.768;2023-05-09T05:04:04;95688.78;;;17.17;53.32
77889;BME280;67082;41.704;44.768;2023-05-09T05:06:32;95692.38;;;17.43;53.32
77889;BME280;67082;41.704;44.768;2023-05-09T05:09:01;95682.78;;;17.55;53.02
77889;BME280;67082;41.704;44.768;2023-05-09T05:11:29;95701.59;;;17.49;53.07
77889;BME280;67082;41.704;44.768;2023-05-09T05:13:58;95672.56;;;17.52;53.31
77889;BME280;67082;41.704;44.768;2023-05-09T05:16:30;95690.16;;;17.53;53.82
77889;BME280;67082;41.704;44.768;2023-05-09T05:18:59;95704.09;;;17.47;53.62
77889;BME280;67082;41.704;44.768;2023-05-09T05:21:27;95698.38;;;17.62;53.19
77889;BME280;67082;41.704;44.768;2023-05-09T05:23:56;95713.97;;;17.68;54.24
77889;BME280;67082;41.704;44.768;2023-05-09T05:26:24;95704.50;;;17.66;53.34
77889;BME280;67082;41.704;44.768;2023-05-09T05:28:52;95701.84;;;17.82;52.79
77889;BME280;67082;41.704;44.768;2023-05-09T05:31:22;95697.81;;;17.89;52.71
77889;BME280;67082;41.704;44.768;2023-05-09T05:33:50;95696.44;;;17.73;52.96
77889;BME280;67082;41.704;44.768;2023-05-09T05:36:20;95678.50;;;17.65;53.28
77889;BME280;67082;41.704;44.768;2023-05-09T05:38:50;95684.19;;;17.76;53.28
77889;BME280;67082;41.704;44.768;2023-05-09T05:41:18;95683.47;;;17.81;52.86
77889;BME280;67082;41.704;44.768;2023-05-09T05:43:46;95689.88;;;17.82;52.83
77889;BME280;67082;41.704;44.768;2023-05-09T05:46:15;95696.44;;;17.73;52.28
77889;BME280;67082;41.704;44.768;2023-05-09T05:48:47;95692.41;;;17.80;51.86
77889;BME280;67082;41.704;44.768;2023-05-09T05:51:15;95702.53;;;18.08;51.78
77889;BME280;67082;41.704;44.768;2023-05-09T05:53:44;95697.78;;;17.83;51.98
77889;BME280;67082;41.704;44.768;2023-05-09T05:56:12;95711.81;;;17.83;51.71
77889;BME280;67082;41.704;44.768;2023-05-09T05:58:40;95701.41;;;17.89;52.06
77889;BME280;67082;41.704;44.768;2023-05-09T06:01:29;95697.56;;;17.87;52.14
77889;BME280;67082;41.704;44.768;2023-05-09T06:03:58;95701.63;;;17.86;52.12
77889;BME280;67082;41.704;44.768;2023-05-09T06:06:29;95702.03;;;17.73;52.63
77889;BME280;67082;41.704;44.768;2023-05-09T06:08:58;95706.38;;;17.74;52.84
77889;BME280;67082;41.704;44.768;2023-05-09T06:11:26;95693.47;;;17.88;52.31
77889;BME280;67082;41.704;44.768;2023-05-09T06:13:55;95700.66;;;17.94;52.56
77889;BME280;67082;41.704;44.768;2023-05-09T06:16:23;95691.41;;;17.83;52.21
77889;BME280;67082;41.704;44.768;2023-05-09T06:18:52;95690.41;;;17.86;52.61
77889;BME280;67082;41.704;44.768;2023-05-09T06:21:41;95680.00;;;17.92;52.45
77889;BME280;67082;41.704;44.768;2023-05-09T06:24:10;95671.19;;;18.10;52.56
77889;BME280;67082;41.704;44.768;2023-05-09T06:26:56;95656.94;;;18.13;52.72
77889;BME280;67082;41.704;44.768;2023-05-09T06:29:24;95668.38;;;18.10;51.55
77889;BME280;67082;41.704;44.768;2023-05-09T06:31:52;95669.44;;;18.12;52.60
77889;BME280;67082;41.704;44.768;2023-05-09T06:34:20;95672.00;;;18.21;52.64
77889;BME280;67082;41.704;44.768;2023-05-09T06:36:48;95672.50;;;18.20;52.32
77889;BME280;67082;41.704;44.768;2023-05-09T06:39:17;95651.56;;;18.15;51.93
77889;BME280;67082;41.704;44.768;2023-05-09T06:41:44;95647.75;;;18.13;51.72
77889;BME280;67082;41.704;44.768;2023-05-09T06:44:21;95667.69;;;18.26;52.06
77889;BME280;67082;41.704;44.768;2023-05-09T06:46:49;95661.56;;;18.22;50.88
77889;BME280;67082;41.704;44.768;2023-05-09T06:49:18;95664.31;;;18.16;51.46
77889;BME280;67082;41.704;44.768;2023-05-09T06:51:47;95662.94;;;18.32;51.45
77889;BME280;67082;41.704;44.768;2023-05-09T06:54:16;95657.00;;;18.30;50.33
77889;BME280;67082;41.704;44.768;2023-05-09T06:56:44;95649.38;;;18.30;50.58
77889;BME280;67082;41.704;44.768;2023-05-09T06:59:13;95658.69;;;18.58;50.47
77889;BME280;67082;41.704;44.768;2023-05-09T07:01:43;95655.66;;;18.67;49.37
77889;BME280;67082;41.704;44.768;2023-05-09T07:04:11;95658.94;;;18.60;49.15
77889;BME280;67082;41.704;44.768;2023-05-09T07:06:39;95670.44;;;18.62;49.11
77889;BME280;67082;41.704;44.768;2023-05-09T07:09:08;95660.97;;;18.54;48.89
77889;BME280;67082;41.704;44.768;2023-05-09T07:11:36;95652.84;;;18.67;48.63
77889;BME280;67082;41.704;44.768;2023-05-09T07:14:04;95656.75;;;18.97;48.56
77889;BME280;67082;41.704;44.768;2023-05-09T07:16:32;95653.19;;;19.02;47.71
77889;BME280;67082;41.704;44.768;2023-05-09T07:19:05;95643.50;;;18.92;47.50
77889;BME280;67082;41.704;44.768;2023-05-09T07:21:32;95661.03;;;18.71;48.15
77889;BME280;67082;41.704;44.768;2023-05-09T07:24:01;95648.28;;;18.75;48.47
77889;BME280;67082;41.704;44.768;2023-05-09T07:26:30;95638.59;;;18.82;48.09
77889;BME280;67082;41.704;44.768;2023-05-09T07:28:58;95657.50;;;18.81;47.13
77889;BME280;67082;41.704;44.768;2023-05-09T07:31:26;95640.41;;;18.90;48.36
77889;BME280;67082;41.704;44.768;2023-05-09T07:33:55;95646.78;;;18.91;47.88
77889;BME280;67082;41.704;44.768;2023-05-09T07:36:23;95642.72;;;18.97;47.97
77889;BME280;67082;41.704;44.768;2023-05-09T07:38:52;95635.81;;;18.87;48.30
77889;BME280;67082;41.704;44.768;2023-05-09T07:41:20;95645.00;;;18.88;48.08
77889;BME280;67082;41.704;44.768;2023-05-09T07:43:49;95640.66;;;18.81;48.01
77889;BME280;67082;41.704;44.768;2023-05-09T07:46:17;95649.06;;;18.81;47.96
77889;BME280;67082;41.704;44.768;2023-05-09T07:48:46;95637.06;;;18.75;48.17
77889;BME280;67082;41.704;44.768;2023-05-09T07:51:14;95635.50;;;18.74;48.51
77889;BME280;67082;41.704;44.768;2023-05-09T07:53:42;95633.25;;;18.89;48.37
77889;BME280;67082;41.704;44.768;2023-05-09T07:56:10;95627.91;;;19.02;48.44
77889;BME280;67082;41.704;44.768;2023-05-09T07:58:40;95620.03;;;19.17;47.64
77889;BME280;67082;41.704;44.768;2023-05-09T08:01:08;95595.53;;;19.23;47.58
77889;BME280;67082;41.704;44.768;2023-05-09T08:03:37;95609.56;;;19.29;47.42
77889;BME280;67082;41.704;44.768;2023-05-09T08:06:05;95606.25;;;19.52;47.53
77889;BME280;67082;41.704;44.768;2023-05-09T08:08:38;95610.09;;;19.49;47.35
77889;BME280;67082;41.704;44.768;2023-05-09T08:11:06;95589.16;;;19.50;47.20
77889;BME280;67082;41.704;44.768;2023-05-09T08:13:35;95595.25;;;19.71;47.13
77889;BME280;67082;41.704;44.768;2023-05-09T08:16:05;95589.34;;;19.80;46.22
77889;BME280;67082;41.704;44.768;2023-05-09T08:18:35;95604.19;;;19.75;45.73
77889;BME280;67082;41.704;44.768;2023-05-09T08:21:04;95596.78;;;19.66;44.73
77889;BME280;67082;41.704;44.768;2023-05-09T08:23:32;95578.13;;;19.63;45.71
77889;BME280;67082;41.704;44.768;2023-05-09T08:26:00;95570.19;;;19.73;45.86
77889;BME280;67082;41.704;44.768;2023-05-09T08:28:29;95565.34;;;19.68;46.09
77889;BME280;67082;41.704;44.768;2023-05-09T08:30:58;95567.66;;;19.69;46.47
77889;BME280;67082;41.704;44.768;2023-05-09T08:33:27;95556.88;;;19.84;46.29
77889;BME280;67082;41.704;44.768;2023-05-09T08:35:55;95560.69;;;19.87;46.10
77889;BME280;67082;41.704;44.768;2023-05-09T08:38:24;95545.88;;;19.81;44.15
77889;BME280;67082;41.704;44.768;2023-05-09T08:40:52;95550.25;;;19.76;44.73
77889;BME280;67082;41.704;44.768;2023-05-09T08:43:22;95549.16;;;19.96;45.29
77889;BME280;67082;41.704;44.768;2023-05-09T08:45:53;95551.56;;;19.64;45.20
77889;BME280;67082;41.704;44.768;2023-05-09T08:48:24;95531.84;;;19.75;45.46
77889;BME280;67082;41.704;44.768;2023-05-09T08:50:54;95528.22;;;19.91;45.38
77889;BME280;67082;41.704;44.768;2023-05-09T08:53:24;95526.91;;;19.98;45.24
77889;BME280;67082;41.704;44.768;2023-05-09T08:55:53;95526.66;;;20.01;45.07
77889;BME280;67082;41.704;44.768;2023-05-09T08:58:23;95533.81;;;20.08;45.37
77889;BME280;67082;41.704;44.768;2023-05-09T09:00:55;95517.44;;;19.95;44.69
77889;BME280;67082;41.704;44.768;2023-05-09T09:03:24;95533.03;;;20.02;44.90
77889;BME280;67082;41.704;44.768;2023-05-09T09:05:53;95504.19;;;19.90;43.87
77889;BME280;67082;41.704;44.768;2023-05-09T09:08:23;95502.41;;;19.93;44.49
77889;BME280;67082;41.704;44.768;2023-05-09T09:10:53;95529.22;;;19.99;43.48
77889;BME280;67082;41.704;44.768;2023-05-09T09:13:22;95508.22;;;20.00;43.89
77889;BME280;67082;41.704;44.768;2023-05-09T09:15:52;95515.19;;;19.94;42.52
77889;BME280;67082;41.704;44.768;2023-05-09T09:18:28;95493.44;;;19.94;42.58
77889;BME280;67082;41.704;44.768;2023-05-09T09:21:07;95496.19;;;20.05;42.41
77889;BME280;67082;41.704;44.768;2023-05-09T09:23:41;95496.44;;;20.13;42.23
77889;BME280;67082;41.704;44.768;2023-05-09T09:26:09;95478.31;;;20.08;42.55
77889;BME280;67082;41.704;44.768;2023-05-09T09:28:43;95496.13;;;20.27;42.16
77889;BME280;67082;41.704;44.768;2023-05-09T09:31:22;95488.66;;;20.35;42.05
77889;BME280;67082;41.704;44.768;2023-05-09T09:33:59;95488.56;;;20.46;41.64
77889;BME280;67082;41.704;44.768;2023-05-09T09:36:30;95476.25;;;20.55;41.54
77889;BME280;67082;41.704;44.768;2023-05-09T09:39:04;95482.44;;;20.48;40.18
77889;BME280;67082;41.704;44.768;2023-05-09T09:41:36;95482.00;;;20.38;40.23
77889;BME280;67082;41.704;44.768;2023-05-09T09:44:09;95486.31;;;20.39;40.66
77889;BME280;67082;41.704;44.768;2023-05-09T09:46:54;95474.19;;;20.55;40.60
77889;BME280;67082;41.704;44.768;2023-05-09T09:49:25;95486.19;;;20.61;39.49
77889;BME280;67082;41.704;44.768;2023-05-09T09:51:57;95473.88;;;20.64;39.56
77889;BME280;67082;41.704;44.768;2023-05-09T09:54:26;95477.09;;;20.79;39.99
77889;BME280;67082;41.704;44.768;2023-05-09T09:56:55;95458.59;;;20.89;40.45
77889;BME280;67082;41.704;44.768;2023-05-09T09:59:26;95463.59;;;21.02;39.92
77889;BME280;67082;41.704;44.768;2023-05-09T10:04:31;95463.25;;;21.40;40.23
77889;BME280;67082;41.704;44.768;2023-05-09T10:07:02;95469.91;;;21.43;39.40
77889;BME280;67082;41.704;44.768;2023-05-09T10:09:33;95464.72;;;21.47;39.62
77889;BME280;67082;41.704;44.768;2023-05-09T10:12:05;95457.72;;;21.53;39.43
77889;BME280;67082;41.704;44.768;2023-05-09T10:14:35;95466.53;;;21.44;39.07
77889;BME280;67082;41.704;44.768;2023-05-09T10:17:04;95459.78;;;21.53;38.76
77889;BME280;67082;41.704;44.768;2023-05-09T10:19:34;95453.31;;;21.58;39.22
77889;BME280;67082;41.704;44.768;2023-05-09T10:22:08;95451.59;;;21.49;39.10
77889;BME280;67082;41.704;44.768;2023-05-09T10:24:47;95453.97;;;21.45;39.99
77889;BME280;67082;41.704;44.768;2023-05-09T10:27:21;95443.34;;;21.33;40.63
77889;BME280;67082;41.704;44.768;2023-05-09T10:30:01;95426.94;;;21.31;41.17
77889;BME280;67082;41.704;44.768;2023-05-09T10:35:27;95462.97;;;21.44;39.75
77889;BME280;67082;41.704;44.768;2023-05-09T10:37:59;95442.16;;;21.47;39.90
77889;BME280;67082;41.704;44.768;2023-05-09T10:40:30;95446.84;;;21.63;40.18
77889;BME280;67082;41.704;44.768;2023-05-09T10:43:00;95435.94;;;21.78;40.80
77889;BME280;67082;41.704;44.768;2023-05-09T10:45:29;95442.81;;;21.82;40.76
77889;BME280;67082;41.704;44.768;2023-05-09T10:47:58;95461.63;;;21.74;40.78
77889;BME280;67082;41.704;44.768;2023-05-09T10:50:28;95462.69;;;21.71;40.74
77889;BME280;67082;41.704;44.768;2023-05-09T10:53:04;95461.38;;;21.72;40.54
77889;BME280;67082;41.704;44.768;2023-05-09T10:55:56;95460.44;;;21.64;40.54
77889;BME280;67082;41.704;44.768;2023-05-09T10:58:30;95447.78;;;21.71;40.74
77889;BME280;67082;41.704;44.768;2023-05-09T11:01:02;95457.59;;;21.88;41.11
77889;BME280;67082;41.704;44.768;2023-05-09T11:03:57;95448.91;;;22.05;40.54
77889;BME280;67082;41.704;44.768;2023-05-09T11:06:48;95460.25;;;21.81;39.94
77889;BME280;67082;41.704;44.768;2023-05-09T11:09:32;95449.34;;;21.72;40.07
77889;BME280;67082;41.704;44.768;2023-05-09T11:14:38;95447.75;;;21.76;39.31
77889;BME280;67082;41.704;44.768;2023-05-09T11:22:23;95435.81;;;21.89;40.01
77889;BME280;67082;41.704;44.768;2023-05-09T11:25:13;95438.00;;;21.96;39.29
77889;BME280;67082;41.704;44.768;2023-05-09T11:27:49;95444.19;;;21.94;39.93
77889;BME280;67082;41.704;44.768;2023-05-09T11:30:19;95457.00;;;21.95;39.91
77889;BME280;67082;41.704;44.768;2023-05-09T11:32:54;95440.81;;;21.77;38.22
77889;BME280;67082;41.704;44.768;2023-05-09T11:35:26;95427.78;;;21.74;38.55
77889;BME280;67082;41.704;44.768;2023-05-09T11:38:05;95441.88;;;21.74;37.99
77889;BME280;67082;41.704;44.768;2023-05-09T11:40:33;95430.13;;;21.70;38.06
77889;BME280;67082;41.704;44.768;2023-05-09T11:43:02;95426.78;;;21.72;38.03
77889;BME280;67082;41.704;44.768;2023-05-09T11:45:31;95420.00;;;21.56;38.30
77889;BME280;67082;41.704;44.768;2023-05-09T11:48:00;95413.22;;;21.46;39.09
77889;BME280;67082;41.704;44.768;2023-05-09T11:50:30;95433.06;;;21.59;39.29
77889;BME280;67082;41.704;44.768;2023-05-09T11:52:58;95427.22;;;21.52;39.79
77889;BME280;67082;41.704;44.768;2023-05-09T11:55:27;95412.03;;;21.36;40.44
77889;BME280;67082;41.704;44.768;2023-05-09T11:58:00;95420.16;;;21.45;40.25
77889;BME280;67082;41.704;44.768;2023-05-09T12:00:28;95421.06;;;21.53;40.25
77889;BME280;67082;41.704;44.768;2023-05-09T12:02:56;95412.44;;;21.46;40.81
77889;BME280;67082;41.704;44.768;2023-05-09T12:05:25;95417.06;;;21.43;40.96
77889;BME280;67082;41.704;44.768;2023-05-09T12:07:54;95420.72;;;21.38;40.83
77889;BME280;67082;41.704;44.768;2023-05-09T12:10:24;95408.81;;;21.27;41.12
77889;BME280;67082;41.704;44.768;2023-05-09T12:12:53;95414.75;;;21.23;41.36
77889;BME280;67082;41.704;44.768;2023-05-09T12:15:25;95411.56;;;21.32;41.21
77889;BME280;67082;41.704;44.768;2023-05-09T12:18:03;95415.78;;;21.20;40.77
77889;BME280;67082;41.704;44.768;2023-05-09T12:20:46;95418.00;;;21.27;40.53
77889;BME280;67082;41.704;44.768;2023-05-09T12:23:16;95415.78;;;21.20;40.44
77889;BME280;67082;41.704;44.768;2023-05-09T12:25:51;95415.19;;;21.27;40.24
77889;BME280;67082;41.704;44.768;2023-05-09T12:28:22;95415.97;;;21.28;39.87
77889;BME280;67082;41.704;44.768;2023-05-09T12:30:50;95418.28;;;21.29;39.54
77889;BME280;67082;41.704;44.768;2023-05-09T12:33:19;95415.63;;;21.37;40.01
77889;BME280;67082;41.704;44.768;2023-05-09T12:36:09;95405.31;;;21.39;40.55
77889;BME280;67082;41.704;44.768;2023-05-09T12:38:38;95411.97;;;21.42;38.82
77889;BME280;67082;41.704;44.768;2023-05-09T12:41:09;95409.00;;;21.53;38.04
77889;BME280;67082;41.704;44.768;2023-05-09T12:43:58;95417.66;;;21.60;38.39
77889;BME280;67082;41.704;44.768;2023-05-09T12:46:27;95407.38;;;21.63;38.36
77889;BME280;67082;41.704;44.768;2023-05-09T12:48:56;95396.28;;;21.70;38.13
77889;BME280;67082;41.704;44.768;2023-05-09T12:51:24;95410.47;;;21.83;37.94
77889;BME280;67082;41.704;44.768;2023-05-09T12:53:52;95411.31;;;21.97;38.00
77889;BME280;67082;41.704;44.768;2023-05-09T12:56:20;95410.50;;;22.02;38.52
77889;BME280;67082;41.704;44.768;2023-05-09T12:58:53;95402.88;;;22.15;37.84
77889;BME280;67082;41.704;44.768;2023-05-09T13:01:26;95405.13;;;22.17;38.12
77889;BME280;67082;41.704;44.768;2023-05-09T13:04:05;95408.34;;;22.26;37.47
77889;BME280;67082;41.704;44.768;2023-05-09T13:06:34;95394.63;;;22.17;37.25
77889;BME280;67082;41.704;44.768;2023-05-09T13:09:04;95392.16;;;22.08;37.05
77889;BME280;67082;41.704;44.768;2023-05-09T13:11:33;95395.16;;;21.97;36.75
77889;BME280;67082;41.704;44.768;2023-05-09T13:14:02;95402.56;;;22.00;34.58
77889;BME280;67082;41.704;44.768;2023-05-09T13:16:30;95394.31;;;21.84;34.60
77889;BME280;67082;41.704;44.768;2023-05-09T13:18:59;95398.56;;;21.90;34.65
77889;BME280;67082;41.704;44.768;2023-05-09T13:21:31;95399.34;;;22.09;35.75
77889;BME280;67082;41.704;44.768;2023-05-09T13:24:01;95389.50;;;22.16;37.80
77889;BME280;67082;41.704;44.768;2023-05-09T13:26:29;95397.50;;;22.30;38.42
77889;BME280;67082;41.704;44.768;2023-05-09T13:28:57;95407.72;;;22.33;37.84
77889;BME280;67082;41.704;44.768;2023-05-09T13:31:25;95403.44;;;22.27;37.36
77889;BME280;67082;41.704;44.768;2023-05-09T13:33:54;95410.50;;;22.20;36.65
77889;BME280;67082;41.704;44.768;2023-05-09T13:36:22;95408.72;;;22.17;36.49